Randolph, VT (05060)

10:51 AM EDT on April 25, 2015 (GMT -0400)
Norwich University -CISBE | | Change Station
CLOSE
Current Station
Personal Weather Station
Location: Northfield, VT
Elevation: 817 ft
Nearby Weather Stations

Elev 817 ft 44.14 °N, 72.66 °W | Updated 10 seconds ago

Overcast
Overcast
41.0 °F
Feels Like 41 °F
N
3.0
Wind Variable Wind from NW
Gusts 0.0 mph

Today
High -- | Low -- °F
--% Chance of Precip.
Yesterday
High -- | Low -- °F
Precip. -- in
5:51 AM 7:46 PM
Waxing Crescent, 46% visible
Pressure 29.80 in
Visibility 10.0 miles
Clouds Mostly Cloudy 2600 ft
Mostly Cloudy 4200 ft
Overcast 4800 ft
Windchill 41 °F
Dew Point 32 °F
Humidity 69%
Rainfall 0.00 in
Snow Depth Not available.
UV 2 out of 12
Pollen 7.80 out of 12
Air Quality Not available.
Flu Activity Regional
SPECI KMPV 251427Z AUTO 31008KT 10SM BKN026 BKN042 OVC048 02/M05 A2980 RMK AO2 T00171050

More Conditions Fewer Conditions

Pressure 29.80 in
Visibility 10.0 miles
Clouds Mostly Cloudy 2600 ft
Mostly Cloudy 4200 ft
Overcast 4800 ft
Windchill 41 °F
Dew Point 32 °F
Humidity 69%
Rainfall 0.00 in
Snow Depth Not available.
UV 2 out of 12
Pollen 7.80 out of 12
Air Quality Not available.
Flu Activity Regional
SPECI KMPV 251427Z AUTO 31008KT 10SM BKN026 BKN042 OVC048 02/M05 A2980 RMK AO2 T00171050

More Conditions Fewer Conditions

10-Day Weather Forecast

Almanac

Astronomy

Apr. 25, 2015 Rise Set
Actual Time
Civil Twilight
Nautical Twilight
Astronomical Twilight
Moon
Length of Visible Light
Length of Day
Tomorrow will be .
, % of the Moon is Illuminated

Today's Extremes

State Highs State Lows

Community

WunderPhotos

Upload Photos

1,816,691 photos uploaded!

WunderBlogs® & News

Nearby

Air Quality

  Air Quality AQ Index Pollutant
Not available.

Snow Depth

Station Depth Elevation

Earthquake Activity

City Distance Mag. Time & Date
Minimum magnitude displayed is 2.5.

Coastal Water Temperatures

Place Temperature

Stations

Nearby Weather Stations

Station Location Temp. Windchill Dew Point Humidity Wind Precip. Elev Updated Type